Time;durP1;ratioP1;P1;durP2;ratioP2;P2;SDS_P1;SDS_P2;PMS_P1;PMS_P2;Temp;Humidity;BMP_temperature;BMP_pressure;BME280_temperature;BME280_humidity;BME280_pressure;Samples;Min_cycle;Max_cycle;Signal;HPM_P1;HPM_P2
2022/02/23 00:00:12;;;;;;;30.48;5.07;;;6.30;99.90;;;;;;5073592;28;20094;-72
2022/02/23 00:02:38;;;;;;;20.45;4.35;;;6.30;99.90;;;;;;5073493;28;20633;-72
2022/02/23 00:05:04;;;;;;;20.02;4.30;;;6.30;99.90;;;;;;5073509;28;20111;-72
2022/02/23 00:07:30;;;;;;;26.73;5.20;;;6.20;99.90;;;;;;5073855;28;20119;-72
2022/02/23 00:09:55;;;;;;;24.15;3.97;;;6.20;99.90;;;;;;5073436;28;20203;-72
2022/02/23 00:12:21;;;;;;;22.35;4.05;;;6.20;99.90;;;;;;5055041;28;20102;-72
2022/02/23 00:14:46;;;;;;;26.17;5.07;;;6.20;99.90;;;;;;5073432;28;20064;-71
2022/02/23 00:17:12;;;;;;;21.25;5.93;;;6.20;99.90;;;;;;5055367;28;20059;-72
2022/02/23 00:19:37;;;;;;;20.67;4.60;;;6.20;99.90;;;;;;5073164;28;20032;-72
2022/02/23 00:22:04;;;;;;;22.92;4.75;;;6.20;99.90;;;;;;5054992;28;20048;-71
2022/02/23 00:24:29;;;;;;;23.88;5.20;;;6.10;99.90;;;;;;5055240;28;20512;-72
2022/02/23 00:26:55;;;;;;;30.98;7.15;;;6.10;99.90;;;;;;5073211;28;20032;-71
2022/02/23 00:29:20;;;;;;;20.23;4.85;;;6.10;99.90;;;;;;5072891;28;20112;-72
2022/02/23 00:31:46;;;;;;;20.55;5.03;;;6.00;99.90;;;;;;5054901;28;20040;-71
2022/02/23 00:34:12;;;;;;;24.00;5.15;;;6.00;99.90;;;;;;5072907;28;20116;-72
2022/02/23 00:36:38;;;;;;;18.20;5.15;;;6.00;99.90;;;;;;5073246;28;20036;-72
2022/02/23 00:39:04;;;;;;;28.73;4.82;;;6.00;99.90;;;;;;5054715;28;20120;-72
2022/02/23 00:41:29;;;;;;;34.35;5.18;;;5.90;99.90;;;;;;5072349;28;20083;-71
2022/02/23 00:43:55;;;;;;;27.17;5.38;;;5.90;99.90;;;;;;5072966;28;20037;-71
2022/02/23 00:46:20;;;;;;;22.05;5.03;;;5.90;99.90;;;;;;5054966;28;20048;-72
2022/02/23 00:48:46;;;;;;;27.35;5.40;;;5.90;99.90;;;;;;5072632;28;20052;-71
2022/02/23 00:51:12;;;;;;;25.85;6.88;;;5.90;99.90;;;;;;5054519;28;20041;-72
2022/02/23 00:53:37;;;;;;;23.42;5.38;;;5.90;99.90;;;;;;5054866;28;20513;-72
2022/02/23 00:56:03;;;;;;;22.40;4.80;;;5.90;99.90;;;;;;5054213;28;20559;-72
2022/02/23 00:58:29;;;;;;;21.75;4.35;;;5.90;99.90;;;;;;5054695;28;20048;-72
2022/02/23 01:00:55;;;;;;;29.45;5.78;;;5.90;99.90;;;;;;5072168;28;20036;-72
2022/02/23 01:03:20;;;;;;;24.65;5.07;;;5.90;99.90;;;;;;5072503;28;20033;-72
2022/02/23 01:05:46;;;;;;;31.05;5.20;;;5.80;99.90;;;;;;5072536;28;20107;-72
2022/02/23 01:08:11;;;;;;;21.35;4.97;;;5.90;99.90;;;;;;5054413;28;20047;-72
2022/02/23 01:10:37;;;;;;;15.57;3.80;;;5.90;99.90;;;;;;5054334;28;20109;-72
2022/02/23 01:13:03;;;;;;;22.13;5.72;;;5.90;99.90;;;;;;5054234;28;20045;-72
2022/02/23 01:15:29;;;;;;;18.60;4.93;;;5.80;99.90;;;;;;5054313;28;20068;-72
2022/02/23 01:17:55;;;;;;;27.88;6.43;;;5.90;99.90;;;;;;5054325;28;20087;-72
2022/02/23 01:20:20;;;;;;;33.35;6.50;;;5.90;99.90;;;;;;5054198;28;20482;-72
2022/02/23 01:22:46;;;;;;;23.40;5.50;;;5.90;99.90;;;;;;5072045;28;20465;-72
2022/02/23 01:25:11;;;;;;;24.35;5.35;;;5.90;99.90;;;;;;5054145;28;20045;-71
2022/02/23 01:27:37;;;;;;;27.95;5.65;;;5.90;99.90;;;;;;5072116;28;20032;-72
2022/02/23 01:30:05;;;;;;;21.15;4.32;;;5.90;99.90;;;;;;5071850;28;20036;-72
2022/02/23 01:32:31;;;;;;;28.27;4.82;;;5.80;99.90;;;;;;5053940;28;20053;-72
2022/02/23 01:34:56;;;;;;;23.63;4.63;;;5.80;99.90;;;;;;5054328;28;20055;-72
2022/02/23 01:37:22;;;;;;;22.27;5.32;;;5.80;99.90;;;;;;5037666;28;20048;-72
2022/02/23 01:39:49;;;;;;;17.42;3.75;;;5.80;99.90;;;;;;5054171;28;20055;-73
2022/02/23 01:42:16;;;;;;;20.25;3.90;;;5.80;99.90;;;;;;5054005;28;20134;-72
2022/02/23 01:44:41;;;;;;;26.42;5.40;;;5.80;99.90;;;;;;5054047;28;20512;-72
2022/02/23 01:47:07;;;;;;;31.88;5.05;;;5.80;99.90;;;;;;5071995;28;20079;-72
2022/02/23 01:49:34;;;;;;;21.60;5.93;;;5.80;99.90;;;;;;5071763;28;20048;-72
2022/02/23 01:51:59;;;;;;;22.17;5.10;;;5.80;99.90;;;;;;5053607;28;20099;-72
2022/02/23 01:54:25;;;;;;;18.25;3.88;;;5.70;99.90;;;;;;5071886;28;20147;-72
2022/02/23 01:56:51;;;;;;;25.60;5.30;;;5.70;99.90;;;;;;5053784;28;20123;-72
2022/02/23 01:59:17;;;;;;;22.13;5.82;;;5.70;99.90;;;;;;5071588;28;20146;-72
2022/02/23 02:01:43;;;;;;;25.80;5.78;;;5.70;99.90;;;;;;5071453;28;20498;-72
2022/02/23 02:04:08;;;;;;;20.77;4.82;;;5.70;99.90;;;;;;5053681;28;20047;-72
2022/02/23 02:06:34;;;;;;;22.13;4.90;;;5.70;99.90;;;;;;5071801;28;20048;-72
2022/02/23 02:08:59;;;;;;;25.17;6.15;;;5.60;99.90;;;;;;5055217;28;20486;-72
2022/02/23 02:11:25;;;;;;;30.15;5.80;;;5.70;99.90;;;;;;5075372;28;20044;-72
2022/02/23 02:13:50;;;;;;;27.85;5.72;;;5.60;99.90;;;;;;5057909;28;20080;-72
2022/02/23 02:16:16;;;;;;;20.73;4.47;;;5.60;99.90;;;;;;5041328;28;20033;-72
2022/02/23 02:18:42;;;;;;;23.15;5.55;;;5.60;99.90;;;;;;5057565;28;20040;-72
2022/02/23 02:21:07;;;;;;;18.85;4.30;;;5.60;99.90;;;;;;5057212;28;20127;-72
2022/02/23 02:23:33;;;;;;;33.22;4.68;;;5.60;99.90;;;;;;5057412;28;20052;-72
2022/02/23 02:25:58;;;;;;;34.05;5.45;;;5.50;99.90;;;;;;5075483;28;20079;-72
2022/02/23 02:28:24;;;;;;;24.10;5.57;;;5.50;99.90;;;;;;5057172;28;20059;-72
2022/02/23 02:30:49;;;;;;;30.15;6.80;;;5.50;99.90;;;;;;5075045;28;20045;-72
2022/02/23 02:33:16;;;;;;;31.52;5.40;;;5.50;99.90;;;;;;5075316;28;20041;-72
2022/02/23 02:35:41;;;;;;;34.42;6.05;;;5.50;99.90;;;;;;5057374;28;20064;-70
2022/02/23 02:38:08;;;;;;;41.75;6.75;;;5.50;99.90;;;;;;5057136;28;20149;-70
2022/02/23 02:40:34;;;;;;;21.20;4.65;;;5.50;99.90;;;;;;5056749;28;20498;-70
2022/02/23 02:43:04;;;;;;;26.15;6.32;;;5.50;99.90;;;;;;5057177;28;20413;-70
2022/02/23 02:45:30;;;;;;;26.20;5.10;;;5.50;99.90;;;;;;5057080;28;20044;-70
2022/02/23 02:47:55;;;;;;;24.77;4.75;;;5.50;99.90;;;;;;5057108;28;20040;-70
2022/02/23 02:50:21;;;;;;;22.00;5.65;;;5.50;99.90;;;;;;5074803;28;20102;-70
2022/02/23 02:52:47;;;;;;;23.05;4.07;;;5.50;99.90;;;;;;5056604;28;20391;-70
2022/02/23 02:55:12;;;;;;;15.73;4.28;;;5.50;99.90;;;;;;5056894;28;20414;-70
2022/02/23 02:57:39;;;;;;;28.70;5.15;;;5.50;99.90;;;;;;5056820;28;20064;-70
2022/02/23 03:00:08;;;;;;;28.35;5.82;;;5.40;99.90;;;;;;5056777;28;20063;-70
2022/02/23 03:02:34;;;;;;;24.58;4.97;;;5.50;99.90;;;;;;5056404;28;20032;-70
2022/02/23 03:05:00;;;;;;;29.15;5.15;;;5.40;99.90;;;;;;5056764;28;20037;-70
2022/02/23 03:07:26;;;;;;;28.75;5.40;;;5.50;99.90;;;;;;5056746;28;20599;-70
2022/02/23 03:09:51;;;;;;;29.25;5.10;;;5.50;99.90;;;;;;5074387;28;20029;-70
2022/02/23 03:12:19;;;;;;;28.00;4.63;;;5.40;99.90;;;;;;5074326;28;20041;-70
2022/02/23 03:14:45;;;;;;;23.17;5.63;;;5.40;99.90;;;;;;5074659;28;20040;-70
2022/02/23 03:17:11;;;;;;;22.17;5.93;;;5.40;99.90;;;;;;5074509;28;20032;-70
2022/02/23 03:19:36;;;;;;;29.20;5.75;;;5.40;99.90;;;;;;5074011;28;20062;-70
2022/02/23 03:22:02;;;;;;;20.67;4.55;;;5.50;99.90;;;;;;5056063;28;20045;-70
2022/02/23 03:24:27;;;;;;;20.20;4.50;;;5.40;99.90;;;;;;5074515;28;20413;-70
2022/02/23 03:26:53;;;;;;;27.60;4.93;;;5.40;99.90;;;;;;5056712;28;20040;-70
2022/02/23 03:29:18;;;;;;;27.20;5.47;;;5.40;99.90;;;;;;5081907;22;20497;-73
2022/02/23 03:31:44;;;;;;;23.60;4.85;;;5.50;99.90;;;;;;5073310;28;20123;-73
2022/02/23 03:34:09;;;;;;;33.53;5.25;;;5.50;99.90;;;;;;5074206;28;20090;-73
2022/02/23 03:36:36;;;;;;;26.00;5.40;;;5.60;99.90;;;;;;5074050;28;20416;-74
2022/02/23 03:39:03;;;;;;;34.47;5.38;;;5.60;99.90;;;;;;5071673;28;20063;-74
2022/02/23 03:41:29;;;;;;;26.27;5.55;;;5.50;99.90;;;;;;5072753;28;20059;-73
2022/02/23 03:43:54;;;;;;;25.52;5.05;;;5.50;99.90;;;;;;5072883;28;20044;-73
2022/02/23 03:46:20;;;;;;;20.42;5.30;;;5.40;99.90;;;;;;5072835;28;20078;-74
2022/02/23 03:48:45;;;;;;;21.70;4.93;;;5.40;99.90;;;;;;5073902;28;20044;-73
2022/02/23 03:51:12;;;;;;;24.92;5.72;;;5.40;99.90;;;;;;5072221;28;20044;-73
2022/02/23 03:53:39;;;;;;;31.60;5.07;;;5.40;99.90;;;;;;5072743;28;20082;-73
2022/02/23 03:56:38;;;;;;;29.05;6.05;;;5.40;99.90;;;;;;5072558;28;20511;-73
2022/02/23 03:58:50;;;;;;;29.20;5.18;;;5.30;99.90;;;;;;5073342;28;20049;-73
2022/02/23 04:01:15;;;;;;;19.52;4.80;;;5.30;99.90;;;;;;5073406;28;20044;-74
2022/02/23 04:03:41;;;;;;;21.45;4.97;;;5.30;99.90;;;;;;5073540;28;20040;-74
2022/02/23 04:06:06;;;;;;;24.63;4.93;;;5.30;99.90;;;;;;5073455;28;20045;-75
2022/02/23 04:08:32;;;;;;;23.45;4.55;;;5.30;99.90;;;;;;5072020;28;20044;-73
2022/02/23 04:10:57;;;;;;;25.05;5.18;;;5.20;99.90;;;;;;5073205;28;20524;-75
2022/02/23 04:13:23;;;;;;;23.15;5.47;;;5.20;99.90;;;;;;5073445;28;20036;-74
2022/02/23 04:15:48;;;;;;;26.40;4.95;;;5.10;99.90;;;;;;5073364;28;20036;-75
2022/02/23 04:18:14;;;;;;;21.95;4.35;;;5.10;99.90;;;;;;5073255;28;20062;-73
2022/02/23 04:20:39;;;;;;;27.75;5.68;;;5.10;99.90;;;;;;5073050;28;20406;-74
2022/02/23 04:23:05;;;;;;;29.20;5.55;;;5.10;99.90;;;;;;5071494;28;20052;-74
2022/02/23 04:25:31;;;;;;;27.17;4.85;;;5.10;99.90;;;;;;5071816;28;20470;-75
2022/02/23 04:27:56;;;;;;;30.20;6.65;;;5.10;99.90;;;;;;5071753;28;20040;-73
2022/02/23 04:30:22;;;;;;;30.17;4.30;;;5.00;99.90;;;;;;5072765;28;20464;-74
2022/02/23 04:32:47;;;;;;;26.08;5.70;;;5.00;99.90;;;;;;5070624;28;20456;-74
2022/02/23 04:35:13;;;;;;;26.13;5.05;;;5.00;99.90;;;;;;5072780;28;20041;-75
2022/02/23 04:37:39;;;;;;;31.75;5.38;;;5.00;99.90;;;;;;5072731;28;20036;-73
2022/02/23 04:40:05;;;;;;;24.67;5.47;;;4.90;99.90;;;;;;5072934;28;20059;-74
2022/02/23 04:42:31;;;;;;;28.63;5.18;;;4.90;99.90;;;;;;5071199;28;20083;-73
2022/02/23 04:45:00;;;;;;;28.70;6.07;;;4.90;99.90;;;;;;5071380;28;20098;-74
2022/02/23 04:47:26;;;;;;;32.28;5.43;;;4.90;99.90;;;;;;5072731;28;20115;-74
2022/02/23 04:49:52;;;;;;;24.63;4.32;;;4.90;99.90;;;;;;5072537;28;20040;-73
2022/02/23 04:52:17;;;;;;;25.05;6.13;;;4.80;99.90;;;;;;5070601;28;20054;-74
2022/02/23 04:54:43;;;;;;;31.52;5.22;;;4.80;99.90;;;;;;5071183;28;20119;-73
2022/02/23 04:57:09;;;;;;;25.25;4.93;;;4.80;99.90;;;;;;5071206;28;20112;-73
2022/02/23 04:59:34;;;;;;;29.33;5.93;;;4.70;99.90;;;;;;5072370;28;20032;-74
2022/02/23 05:02:00;;;;;;;20.58;4.90;;;4.80;99.90;;;;;;5071003;28;20449;-73
2022/02/23 05:04:27;;;;;;;26.52;4.75;;;4.80;99.90;;;;;;5072233;28;20486;-73
2022/02/23 05:06:52;;;;;;;21.30;4.25;;;4.80;99.90;;;;;;5070992;28;20044;-73
2022/02/23 05:09:18;;;;;;;19.23;4.63;;;4.80;99.90;;;;;;5070809;28;20102;-74
2022/02/23 05:11:43;;;;;;;21.55;4.47;;;4.70;99.90;;;;;;5071684;28;20101;-74
2022/02/23 05:14:09;;;;;;;26.08;5.60;;;4.70;99.90;;;;;;5072005;28;20119;-74
2022/02/23 05:16:35;;;;;;;23.27;4.95;;;4.60;99.90;;;;;;5070697;28;20117;-73
2022/02/23 05:19:00;;;;;;;27.02;5.95;;;4.60;99.90;;;;;;5070712;28;20041;-73
2022/02/23 05:21:26;;;;;;;19.88;5.07;;;4.60;99.90;;;;;;5071876;28;20044;-73
2022/02/23 05:23:51;;;;;;;22.02;4.60;;;4.50;99.90;;;;;;5072005;28;20146;-74
2022/02/23 05:26:17;;;;;;;43.25;6.72;;;4.50;99.90;;;;;;5072022;28;20032;-73
2022/02/23 05:28:42;;;;;;;21.33;4.90;;;4.40;99.90;;;;;;5070477;28;20525;-74
2022/02/23 05:31:08;;;;;;;25.00;4.63;;;4.50;99.90;;;;;;5071482;28;20119;-74
2022/02/23 05:33:33;;;;;;;21.40;4.85;;;4.40;99.90;;;;;;5072109;28;20040;-74
2022/02/23 05:36:01;;;;;;;27.10;5.50;;;4.40;99.90;;;;;;5071860;28;20037;-74
2022/02/23 05:38:26;;;;;;;23.25;3.78;;;4.40;99.90;;;;;;5070732;28;20041;-75
2022/02/23 05:40:52;;;;;;;18.85;4.30;;;4.40;99.90;;;;;;5070252;28;20067;-73
2022/02/23 05:43:18;;;;;;;22.48;5.47;;;4.40;99.90;;;;;;5070680;28;20055;-74
2022/02/23 05:45:43;;;;;;;25.20;4.65;;;4.40;99.90;;;;;;5071679;28;20036;-74
2022/02/23 05:48:09;;;;;;;20.15;4.75;;;4.40;99.90;;;;;;5070691;28;20363;-74
2022/02/23 05:50:34;;;;;;;29.67;4.78;;;4.30;99.90;;;;;;5071725;28;20123;-74
2022/02/23 05:53:00;;;;;;;27.08;4.88;;;4.30;99.90;;;;;;5071122;28;20037;-73
2022/02/23 05:55:26;;;;;;;23.60;4.38;;;4.30;99.90;;;;;;5071691;28;20037;-74
2022/02/23 05:57:51;;;;;;;24.48;6.30;;;4.30;99.90;;;;;;5071519;28;20127;-73
2022/02/23 06:00:17;;;;;;;30.05;4.63;;;4.30;99.90;;;;;;5071798;28;20037;-74
2022/02/23 06:02:42;;;;;;;30.90;5.05;;;4.30;99.90;;;;;;5071409;28;20033;-75
2022/02/23 06:05:08;;;;;;;26.65;5.32;;;4.30;99.90;;;;;;5071525;28;20029;-74
2022/02/23 06:07:34;;;;;;;27.38;4.45;;;4.30;99.90;;;;;;5070506;28;20086;-74
2022/02/23 06:10:00;;;;;;;23.65;6.03;;;4.30;99.90;;;;;;5071531;28;20426;-74
2022/02/23 06:12:25;;;;;;;20.75;4.40;;;4.30;99.90;;;;;;5070988;28;20044;-74
2022/02/23 06:14:51;;;;;;;27.85;4.03;;;4.30;99.90;;;;;;5070224;28;20040;-75
2022/02/23 06:17:17;;;;;;;29.92;5.65;;;4.30;99.90;;;;;;5071586;28;20044;-74
2022/02/23 06:19:42;;;;;;;22.48;4.10;;;4.30;99.90;;;;;;5070232;28;20044;-74
2022/02/23 06:22:08;;;;;;;31.23;4.22;;;4.20;99.90;;;;;;5071134;28;20040;-74
2022/02/23 06:24:33;;;;;;;30.33;4.43;;;4.20;99.90;;;;;;5070079;28;20056;-75
2022/02/23 06:26:59;;;;;;;22.35;4.10;;;4.30;99.90;;;;;;5071234;28;20066;-74
2022/02/23 06:29:24;;;;;;;28.23;5.13;;;4.30;99.90;;;;;;5069851;28;20085;-73
2022/02/23 06:31:57;;;;;;;21.63;4.40;;;4.30;99.90;;;;;;5069660;28;20040;-74
2022/02/23 06:34:23;;;;;;;26.77;4.05;;;4.30;99.90;;;;;;5069974;28;20119;-74
2022/02/23 06:36:49;;;;;;;21.02;5.22;;;4.30;99.90;;;;;;5069942;28;20094;-74
2022/02/23 06:39:14;;;;;;;25.23;4.95;;;4.30;99.90;;;;;;5069820;28;20406;-74
2022/02/23 06:41:40;;;;;;;27.65;4.32;;;4.30;99.90;;;;;;5069523;28;20050;-75
2022/02/23 06:44:06;;;;;;;24.60;5.28;;;4.30;99.90;;;;;;5070079;28;20071;-74
2022/02/23 06:46:32;;;;;;;24.73;4.40;;;4.30;99.90;;;;;;5070132;28;20041;-74
2022/02/23 06:48:58;;;;;;;20.77;5.30;;;4.40;99.90;;;;;;5069677;28;20045;-73
2022/02/23 06:51:23;;;;;;;27.48;5.55;;;4.40;99.90;;;;;;5069502;28;20118;-74
2022/02/23 06:53:49;;;;;;;15.55;4.18;;;4.40;99.90;;;;;;5069704;28;20063;-74
2022/02/23 06:56:16;;;;;;;16.65;4.30;;;4.40;99.90;;;;;;5073179;28;20032;-74
2022/02/23 06:58:44;;;;;;;26.38;4.53;;;4.40;99.90;;;;;;5073373;28;20044;-74
2022/02/23 07:01:10;;;;;;;21.30;4.10;;;4.40;99.90;;;;;;5073119;28;20045;-74
2022/02/23 07:03:36;;;;;;;20.27;4.20;;;4.40;99.90;;;;;;5073332;28;20054;-74
2022/02/23 07:06:01;;;;;;;25.60;4.30;;;4.40;99.90;;;;;;5073311;28;20044;-74
2022/02/23 07:08:27;;;;;;;13.73;3.88;;;4.40;99.90;;;;;;5073179;28;20140;-74
2022/02/23 07:10:52;;;;;;;14.32;4.32;;;4.40;99.90;;;;;;5073254;28;20047;-75
2022/02/23 07:13:20;;;;;;;21.52;4.70;;;4.50;99.90;;;;;;5073437;28;20040;-73
2022/02/23 07:15:45;;;;;;;21.00;3.88;;;4.50;99.90;;;;;;5073172;28;20102;-74
2022/02/23 07:18:11;;;;;;;21.63;4.45;;;4.60;99.90;;;;;;5073142;28;20036;-74
2022/02/23 07:20:36;;;;;;;21.90;3.90;;;4.70;99.90;;;;;;5072944;28;20033;-74
2022/02/23 07:23:02;;;;;;;19.38;4.68;;;4.80;99.90;;;;;;5072851;28;20597;-74
2022/02/23 07:25:28;;;;;;;18.73;3.70;;;4.90;99.90;;;;;;5074170;28;20055;-74
2022/02/23 07:27:54;;;;;;;18.25;3.83;;;5.00;99.90;;;;;;5074291;28;20036;-76
2022/02/23 07:30:20;;;;;;;17.13;3.45;;;5.10;99.90;;;;;;5074321;28;20041;-74
2022/02/23 07:32:45;;;;;;;17.42;3.78;;;5.30;99.90;;;;;;5073992;28;20070;-73
2022/02/23 07:35:13;;;;;;;18.52;4.32;;;5.40;99.90;;;;;;5072924;28;20127;-73
2022/02/23 07:37:41;;;;;;;14.05;3.13;;;5.60;99.90;;;;;;5074090;28;20036;-73
2022/02/23 07:40:14;;;;;;;22.42;4.80;;;5.70;99.90;;;;;;5073920;28;20481;-73
2022/02/23 07:42:40;;;;;;;18.55;4.07;;;5.80;99.90;;;;;;5073826;28;20051;-74
2022/02/23 07:45:07;;;;;;;19.65;4.35;;;6.00;99.90;;;;;;5073372;28;20406;-73
2022/02/23 07:47:33;;;;;;;19.65;3.92;;;6.10;99.90;;;;;;5072479;28;20044;-73
2022/02/23 07:49:59;;;;;;;18.13;3.75;;;6.30;99.90;;;;;;5073766;28;20107;-73
2022/02/23 07:52:24;;;;;;;23.00;4.50;;;6.40;99.90;;;;;;5072809;28;20070;-74
2022/02/23 07:54:50;;;;;;;15.93;3.78;;;6.50;99.90;;;;;;5073771;28;20544;-74
2022/02/23 07:57:15;;;;;;;24.30;4.70;;;6.60;99.90;;;;;;5073397;28;20076;-73
2022/02/23 07:59:41;;;;;;;23.65;4.72;;;6.70;99.90;;;;;;5073448;28;20119;-73
2022/02/23 08:02:07;;;;;;;15.20;5.28;;;6.90;99.90;;;;;;5073061;28;20087;-74
2022/02/23 08:04:34;;;;;;;11.23;3.30;;;6.90;99.90;;;;;;5073629;28;20051;-73
2022/02/23 08:07:00;;;;;;;16.65;3.90;;;7.00;99.90;;;;;;5072334;28;20067;-73
2022/02/23 08:09:26;;;;;;;22.55;5.03;;;7.10;99.90;;;;;;5073408;28;20510;-74
2022/02/23 08:11:52;;;;;;;20.27;3.72;;;7.20;99.90;;;;;;5071700;28;20052;-74
2022/02/23 08:14:18;;;;;;;17.98;3.90;;;7.20;99.90;;;;;;5073319;28;20398;-74
2022/02/23 08:19:37;;;;;;;16.08;3.40;;;7.40;99.90;;;;;;5073030;28;20497;-74
2022/02/23 08:22:08;;;;;;;13.95;5.90;;;7.60;99.90;;;;;;5072880;28;20037;-74
2022/02/23 08:24:36;;;;;;;19.13;3.15;;;7.70;99.90;;;;;;5071874;28;20047;-74
2022/02/23 08:27:03;;;;;;;14.57;4.40;;;7.80;99.90;;;;;;5072949;28;20047;-74
2022/02/23 08:29:28;;;;;;;13.25;3.10;;;7.90;99.90;;;;;;5071453;28;20041;-73
2022/02/23 08:31:56;;;;;;;21.13;4.28;;;8.00;99.90;;;;;;5071497;28;20113;-74
2022/02/23 08:34:22;;;;;;;16.20;3.25;;;8.00;99.90;;;;;;5073109;28;20037;-74
2022/02/23 08:36:48;;;;;;;13.02;3.53;;;8.10;99.90;;;;;;5072933;28;20036;-74
2022/02/23 08:39:15;;;;;;;19.50;4.13;;;8.20;99.90;;;;;;5072717;28;20036;-74
2022/02/23 08:41:41;;;;;;;20.92;4.38;;;8.30;99.90;;;;;;5072536;28;20119;-74
2022/02/23 08:44:07;;;;;;;15.40;3.85;;;8.30;99.90;;;;;;5072672;28;20510;-74
2022/02/23 08:46:42;;;;;;;20.60;3.75;;;8.40;99.90;;;;;;5071670;28;20106;-74
2022/02/23 08:49:08;;;;;;;16.70;4.68;;;8.30;99.90;;;;;;5072490;28;20502;-74
2022/02/23 08:51:36;;;;;;;16.92;3.28;;;8.30;99.90;;;;;;5070461;28;20044;-75
2022/02/23 08:54:03;;;;;;;24.85;4.32;;;8.40;99.90;;;;;;5071238;28;20071;-74
2022/02/23 08:56:29;;;;;;;23.35;4.55;;;8.30;99.90;;;;;;5071137;28;20079;-74
2022/02/23 08:58:55;;;;;;;15.63;4.70;;;8.30;99.90;;;;;;5070949;28;20049;-74
2022/02/23 09:01:21;;;;;;;11.38;3.58;;;8.40;99.90;;;;;;5070906;28;20045;-73
2022/02/23 09:03:47;;;;;;;19.33;5.30;;;8.40;99.90;;;;;;5070978;28;20509;-73
2022/02/23 09:06:12;;;;;;;17.60;5.10;;;8.30;99.90;;;;;;5071108;28;20071;-73
2022/02/23 09:08:38;;;;;;;11.88;3.60;;;8.30;99.90;;;;;;5070760;28;20036;-73
2022/02/23 09:11:04;;;;;;;16.13;5.03;;;8.30;99.90;;;;;;5071981;28;20142;-73
2022/02/23 09:13:29;;;;;;;24.55;5.50;;;8.20;99.90;;;;;;5071631;28;20155;-74
2022/02/23 09:15:55;;;;;;;19.92;4.22;;;8.20;99.90;;;;;;5070568;28;20124;-73
2022/02/23 09:18:21;;;;;;;24.88;5.75;;;8.20;99.90;;;;;;5069977;28;20035;-74
2022/02/23 09:20:46;;;;;;;16.67;4.22;;;8.20;99.90;;;;;;5071238;28;20042;-73
2022/02/23 09:23:12;;;;;;;18.48;4.57;;;8.20;99.90;;;;;;5066818;28;20077;-73
2022/02/23 09:25:37;;;;;;;21.15;4.43;;;8.20;99.90;;;;;;5070310;28;20067;-73
2022/02/23 09:28:03;;;;;;;15.52;4.13;;;8.30;99.90;;;;;;5068708;28;20395;-74
2022/02/23 09:30:29;;;;;;;19.63;4.53;;;8.30;99.90;;;;;;5069871;28;20505;-74
2022/02/23 09:32:54;;;;;;;19.90;4.20;;;8.30;99.90;;;;;;5070981;28;20082;-74
2022/02/23 09:35:21;;;;;;;17.58;4.80;;;8.30;99.90;;;;;;5070253;28;20043;-73
2022/02/23 09:37:47;;;;;;;16.15;4.97;;;8.40;99.90;;;;;;5070201;28;20090;-75
2022/02/23 09:40:17;;;;;;;24.75;4.30;;;8.30;99.90;;;;;;5068705;28;20028;-73
2022/02/23 09:42:44;;;;;;;15.73;4.20;;;8.30;99.90;;;;;;5071236;28;20028;-74
2022/02/23 09:45:11;;;;;;;17.27;4.43;;;8.40;99.90;;;;;;5070036;28;20474;-73
2022/02/23 09:47:37;;;;;;;25.23;5.85;;;8.40;99.90;;;;;;5070026;28;20048;-73
2022/02/23 09:50:06;;;;;;;16.83;6.30;;;8.40;99.90;;;;;;5069728;28;20076;-75
2022/02/23 09:52:33;;;;;;;22.35;6.13;;;8.40;99.90;;;;;;5053561;28;20513;-73
2022/02/23 09:55:00;;;;;;;24.70;7.35;;;8.40;99.90;;;;;;5051750;28;20037;-73
2022/02/23 09:57:28;;;;;;;18.52;5.65;;;8.40;99.90;;;;;;5051657;28;20068;-74
2022/02/23 09:59:54;;;;;;;24.08;7.30;;;8.50;99.90;;;;;;5050255;28;20098;-74
2022/02/23 10:02:21;;;;;;;18.10;6.68;;;8.40;99.90;;;;;;5051345;28;20040;-73
2022/02/23 10:04:48;;;;;;;20.58;6.75;;;8.50;99.90;;;;;;5050294;28;20048;-73
2022/02/23 10:07:14;;;;;;;26.23;6.45;;;8.50;99.90;;;;;;5051622;28;20068;-74
2022/02/23 10:09:52;;;;;;;22.70;6.68;;;8.50;99.90;;;;;;5051460;28;20077;-73
2022/02/23 10:12:20;;;;;;;24.95;7.10;;;8.60;99.90;;;;;;5049736;28;20127;-74
2022/02/23 10:14:46;;;;;;;25.13;7.22;;;8.50;99.90;;;;;;5059306;28;20108;-73
2022/02/23 10:17:12;;;;;;;26.38;6.00;;;8.60;99.90;;;;;;5064026;28;20028;-74
2022/02/23 10:19:52;;;;;;;26.08;7.15;;;8.50;99.90;;;;;;5067957;28;20170;-74
2022/02/23 10:22:21;;;;;;;21.60;6.15;;;8.60;99.90;;;;;;5069883;28;20040;-73
2022/02/23 10:24:47;;;;;;;16.33;5.68;;;8.60;99.90;;;;;;5071256;28;20040;-73
2022/02/23 10:27:14;;;;;;;19.15;5.90;;;8.60;99.90;;;;;;5069967;28;20512;-73
2022/02/23 10:29:50;;;;;;;21.02;6.45;;;8.60;99.90;;;;;;5072031;28;20068;-74
2022/02/23 10:32:16;;;;;;;19.65;7.32;;;8.60;99.90;;;;;;5056783;28;20052;-74
2022/02/23 10:34:45;;;;;;;23.33;7.18;;;8.60;99.90;;;;;;5073920;28;20123;-73
2022/02/23 10:37:13;;;;;;;19.30;5.55;;;8.60;99.90;;;;;;5075064;28;20033;-74
2022/02/23 10:39:46;;;;;;;17.30;6.03;;;8.70;99.90;;;;;;5074879;28;20402;-74
2022/02/23 10:42:14;;;;;;;20.42;5.90;;;8.60;99.90;;;;;;5074946;28;20082;-74
2022/02/23 10:44:45;;;;;;;16.15;6.10;;;8.70;99.90;;;;;;5075104;28;20032;-74
2022/02/23 10:47:29;;;;;;;21.42;5.10;;;8.70;99.90;;;;;;5075049;28;20044;-74
2022/02/23 10:50:22;;;;;;;16.92;4.53;;;8.70;99.90;;;;;;5074741;28;20048;-74
2022/02/23 10:52:56;;;;;;;13.30;4.25;;;8.80;99.90;;;;;;5074672;28;20052;-74
2022/02/23 10:55:29;;;;;;;19.52;4.85;;;8.80;99.90;;;;;;5073710;28;20036;-74
2022/02/23 10:58:01;;;;;;;26.70;4.15;;;8.80;99.90;;;;;;5074811;28;20070;-74
2022/02/23 11:00:36;;;;;;;23.63;5.53;;;8.80;99.90;;;;;;5073317;28;20040;-74
2022/02/23 11:03:02;;;;;;;19.20;5.75;;;8.90;99.90;;;;;;5074631;28;20063;-74
2022/02/23 11:05:30;;;;;;;17.38;4.13;;;9.00;99.90;;;;;;5074611;28;20036;-73
2022/02/23 11:07:57;;;;;;;11.65;3.88;;;9.00;99.90;;;;;;5073368;28;20044;-74
2022/02/23 11:10:23;;;;;;;17.15;3.92;;;9.00;99.90;;;;;;5074491;28;20068;-74
2022/02/23 11:12:51;;;;;;;18.02;3.33;;;9.00;99.90;;;;;;5072776;28;20079;-74
2022/02/23 11:15:21;;;;;;;10.57;2.80;;;9.00;99.90;;;;;;5074640;28;20630;-74
2022/02/23 11:17:49;;;;;;;12.23;3.97;;;9.10;99.90;;;;;;5073491;28;20037;-75
2022/02/23 11:20:20;;;;;;;12.60;2.70;;;9.10;99.90;;;;;;5074250;28;20401;-77
2022/02/23 11:22:58;;;;;;;16.40;3.55;;;9.10;99.90;;;;;;5072828;28;20106;-74
2022/02/23 11:25:24;;;;;;;14.50;2.70;;;9.10;99.90;;;;;;5074108;28;20112;-74
2022/02/23 11:28:00;;;;;;;6.88;2.88;;;9.20;99.90;;;;;;5074342;28;20071;-74
2022/02/23 11:30:28;;;;;;;5.53;2.70;;;9.30;99.90;;;;;;5072779;28;20055;-75
2022/02/23 11:32:54;;;;;;;11.75;2.63;;;9.30;99.90;;;;;;5072623;28;20049;-74
2022/02/23 11:35:45;;;;;;;8.00;2.42;;;9.30;99.90;;;;;;5074176;28;20036;-73
2022/02/23 11:38:14;;;;;;;5.97;1.80;;;9.30;99.90;;;;;;5072733;28;20398;-73
2022/02/23 11:40:51;;;;;;;11.85;2.55;;;9.30;99.90;;;;;;5073103;28;20040;-74
2022/02/23 11:43:43;;;;;;;10.98;2.08;;;9.40;99.90;;;;;;5074187;28;20072;-73
2022/02/23 11:46:09;;;;;;;7.55;2.05;;;9.40;99.90;;;;;;5071884;28;20052;-73
2022/02/23 11:48:49;;;;;;;9.23;2.13;;;9.40;99.90;;;;;;5073669;28;20107;-73
2022/02/23 11:51:29;;;;;;;7.07;1.98;;;9.50;99.90;;;;;;5072392;28;20043;-73
2022/02/23 11:53:55;;;;;;;7.30;2.60;;;9.50;99.90;;;;;;5074550;28;20048;-74
2022/02/23 11:56:21;;;;;;;11.63;2.05;;;9.60;99.90;;;;;;5070933;28;20516;-73
2022/02/23 11:58:53;;;;;;;9.55;1.70;;;9.60;99.90;;;;;;5055075;28;20033;-73
2022/02/23 12:01:21;;;;;;;6.20;1.52;;;9.60;99.90;;;;;;5053777;28;20038;-73
2022/02/23 12:04:06;;;;;;;12.35;2.00;;;9.70;99.90;;;;;;5052193;28;20045;-73
2022/02/23 12:07:10;;;;;;;5.97;1.65;;;9.70;99.90;;;;;;5052236;28;20041;-73
2022/02/23 12:09:57;;;;;;;5.18;1.30;;;9.70;99.90;;;;;;5035619;28;20495;-73
2022/02/23 12:12:37;;;;;;;7.68;1.60;;;9.70;99.90;;;;;;5053562;28;20479;-74
2022/02/23 12:15:05;;;;;;;6.05;1.52;;;9.70;99.90;;;;;;5035839;28;20037;-73
2022/02/23 12:17:43;;;;;;;9.00;1.60;;;9.80;99.90;;;;;;5053182;28;20487;-74
2022/02/23 12:20:34;;;;;;;5.10;1.50;;;9.80;99.90;;;;;;5051963;28;20080;-74
2022/02/23 12:23:08;;;;;;;7.13;2.00;;;9.80;99.90;;;;;;5053248;28;20041;-74
2022/02/23 12:25:53;;;;;;;5.13;1.55;;;9.80;99.90;;;;;;5052476;28;20086;-74
2022/02/23 12:28:19;;;;;;;5.85;1.70;;;9.80;99.90;;;;;;5053323;28;20098;-74
2022/02/23 12:31:03;;;;;;;6.47;2.65;;;9.90;99.90;;;;;;5052657;28;20041;-74
2022/02/23 12:33:31;;;;;;;9.13;2.70;;;9.80;99.90;;;;;;5052993;28;20041;-74
2022/02/23 12:35:59;;;;;;;7.47;1.48;;;9.80;99.90;;;;;;5052994;28;20036;-74
2022/02/23 12:38:30;;;;;;;6.63;1.80;;;9.90;99.90;;;;;;5052852;28;20032;-74
2022/02/23 12:40:57;;;;;;;8.57;2.28;;;9.80;99.90;;;;;;5052885;28;20096;-73
2022/02/23 12:43:23;;;;;;;9.25;2.03;;;9.80;99.90;;;;;;5052775;28;20120;-74
2022/02/23 12:45:51;;;;;;;9.07;1.90;;;9.80;99.90;;;;;;5052974;28;20037;-73
2022/02/23 12:48:17;;;;;;;5.63;1.80;;;9.90;99.90;;;;;;5052639;28;20461;-73
2022/02/23 12:50:43;;;;;;;8.93;2.13;;;9.90;99.90;;;;;;5056623;28;20044;-74